createdAt,value
2018-03-19T00:01:17.833Z,101469.86
2018-03-19T00:03:45.421Z,101473.44
2018-03-19T00:06:13.069Z,101478.59
2018-03-19T00:08:40.596Z,101475.52
2018-03-19T00:11:08.113Z,101476.42
2018-03-19T00:13:35.641Z,101471.09
2018-03-19T00:16:03.267Z,101467.11
2018-03-19T00:18:30.804Z,101473.08
2018-03-19T00:20:58.329Z,101468.27
2018-03-19T00:23:26.428Z,101460.80
2018-03-19T00:25:54.061Z,101460.03
2018-03-19T00:28:21.629Z,101462.49
2018-03-19T00:30:49.152Z,101456.43
2018-03-19T00:33:16.700Z,101456.86
2018-03-19T00:35:44.229Z,101459.66
2018-03-19T00:38:11.755Z,101451.56
2018-03-19T00:40:39.274Z,101451.02
2018-03-19T00:43:06.802Z,101450.94
2018-03-19T00:45:34.327Z,101447.59
2018-03-19T00:48:01.896Z,101445.33
2018-03-19T00:50:29.423Z,101444.80
2018-03-19T00:52:56.938Z,101442.98
2018-03-19T00:55:24.449Z,101447.52
2018-03-19T00:57:51.969Z,101446.59
2018-03-19T01:00:19.511Z,101447.09
2018-03-19T01:02:47.031Z,101438.75
2018-03-19T01:05:14.596Z,101438.16
2018-03-19T01:07:42.122Z,101440.34
2018-03-19T01:10:09.654Z,101431.94
2018-03-19T01:12:37.172Z,101432.30
2018-03-19T01:15:04.688Z,101435.36
2018-03-19T01:17:32.210Z,101429.25
2018-03-19T01:19:59.732Z,101432.03
2018-03-19T01:22:27.265Z,101427.31
2018-03-19T01:24:54.872Z,101432.84
2018-03-19T01:27:22.405Z,101426.28
2018-03-19T01:29:49.944Z,101427.74
2018-03-19T01:32:17.502Z,101414.55
2018-03-19T01:34:45.023Z,101424.17
2018-03-19T01:37:12.576Z,101420.83
2018-03-19T01:39:40.092Z,101417.48
2018-03-19T01:42:07.631Z,101416.13
2018-03-19T01:44:35.269Z,101411.27
2018-03-19T01:47:02.788Z,101415.05
2018-03-19T01:49:30.337Z,101412.50
2018-03-19T01:51:57.865Z,101418.27
2018-03-19T01:54:25.378Z,101410.95
2018-03-19T01:56:52.898Z,101416.61
2018-03-19T01:59:20.406Z,101412.95
2018-03-19T02:01:47.981Z,101407.95
2018-03-19T02:04:15.511Z,101408.22
2018-03-19T02:06:43.045Z,101407.70
2018-03-19T02:09:10.576Z,101413.78
2018-03-19T02:11:38.089Z,101401.66
2018-03-19T02:14:05.623Z,101411.51
2018-03-19T02:16:33.180Z,101415.44
2018-03-19T02:19:00.741Z,101404.16
2018-03-19T02:21:28.369Z,101405.47
2018-03-19T02:23:55.885Z,101408.44
2018-03-19T02:26:23.424Z,101402.77
2018-03-19T02:28:50.961Z,101401.11
2018-03-19T02:31:18.481Z,101407.57
2018-03-19T02:33:46.066Z,101406.97
2018-03-19T02:36:13.749Z,101411.50
2018-03-19T02:38:41.381Z,101407.19
2018-03-19T02:41:08.910Z,101409.73
2018-03-19T02:43:36.441Z,101409.14
2018-03-19T02:46:03.966Z,101405.34
2018-03-19T02:48:31.528Z,101412.86
2018-03-19T02:50:59.044Z,101413.20
2018-03-19T02:53:26.647Z,101405.48
2018-03-19T02:55:54.167Z,101413.48
2018-03-19T02:58:21.696Z,101408.49
2018-03-19T03:00:49.331Z,101415.84
2018-03-19T03:03:16.855Z,101415.88
2018-03-19T03:05:44.383Z,101413.59
2018-03-19T03:08:11.910Z,101418.02
2018-03-19T03:10:39.430Z,101416.17
2018-03-19T03:13:06.957Z,101408.76
2018-03-19T03:15:34.581Z,101411.41
2018-03-19T03:18:02.153Z,101405.64
2018-03-19T03:20:29.669Z,101411.17
2018-03-19T03:22:57.225Z,101414.75
2018-03-19T03:25:24.754Z,101409.08
2018-03-19T03:27:52.287Z,101415.56
2018-03-19T03:30:19.950Z,101419.29
2018-03-19T03:32:47.470Z,101413.39
2018-03-19T03:35:15.000Z,101417.18
2018-03-19T03:37:42.626Z,101420.81
2018-03-19T03:40:10.152Z,101420.35
2018-03-19T03:42:37.740Z,101417.91
2018-03-19T03:45:05.303Z,101418.41
2018-03-19T03:47:32.857Z,101419.38
2018-03-19T03:50:00.391Z,101416.68
2018-03-19T03:52:27.913Z,101418.67
2018-03-19T03:54:55.442Z,101415.59
2018-03-19T03:57:22.965Z,101420.37
2018-03-19T03:59:50.485Z,101415.78
2018-03-19T04:02:18.127Z,101415.80
2018-03-19T04:04:45.673Z,101413.06
2018-03-19T04:07:13.208Z,101413.20
2018-03-19T04:09:40.727Z,101418.41
2018-03-19T04:12:08.258Z,101411.55
2018-03-19T04:14:35.784Z,101418.70
2018-03-19T04:17:03.303Z,101414.16
2018-03-19T04:19:30.817Z,101416.92
2018-03-19T04:21:58.363Z,101413.46
2018-03-19T04:24:25.941Z,101414.52
2018-03-19T04:26:53.461Z,101415.59
2018-03-19T04:29:20.998Z,101419.98
2018-03-19T04:31:48.633Z,101413.34
2018-03-19T04:34:16.158Z,101408.82
2018-03-19T04:36:43.681Z,101408.73
2018-03-19T04:39:11.359Z,101406.45
2018-03-19T04:41:38.977Z,101405.12
2018-03-19T04:44:06.503Z,101406.44
2018-03-19T04:46:34.048Z,101404.66
2018-03-19T04:49:01.581Z,101399.36
2018-03-19T04:51:29.116Z,101400.66
2018-03-19T04:53:56.637Z,101395.62
2018-03-19T04:56:24.172Z,101399.27
2018-03-19T04:58:51.706Z,101399.91
2018-03-19T05:01:19.250Z,101400.09
2018-03-19T05:03:46.782Z,101402.64
2018-03-19T05:06:14.310Z,101404.84
2018-03-19T05:08:41.853Z,101403.84
2018-03-19T05:11:09.399Z,101398.68
2018-03-19T05:13:37.047Z,101398.92
2018-03-19T05:16:04.561Z,101408.17
2018-03-19T05:18:32.094Z,101413.00
2018-03-19T05:20:59.732Z,101409.30
2018-03-19T05:23:27.249Z,101409.52
2018-03-19T05:25:54.795Z,101410.96
2018-03-19T05:28:22.320Z,101408.83
2018-03-19T05:30:49.963Z,101413.23
2018-03-19T05:33:17.537Z,101412.72
2018-03-19T05:35:45.056Z,101413.08
2018-03-19T05:38:12.576Z,101410.73
2018-03-19T05:40:40.108Z,101422.39
2018-03-19T05:43:07.657Z,101417.06
2018-03-19T05:45:35.186Z,101421.09
2018-03-19T05:48:02.716Z,101420.46
2018-03-19T05:50:30.244Z,101410.73
2018-03-19T05:52:57.774Z,101414.75
2018-03-19T05:55:25.302Z,101411.22
2018-03-19T05:57:52.831Z,101417.94
2018-03-19T06:00:20.341Z,101417.57
2018-03-19T06:02:47.901Z,101424.06
2018-03-19T06:05:15.530Z,101421.47
2018-03-19T06:07:43.066Z,101410.69
2018-03-19T06:10:10.597Z,101410.26
2018-03-19T06:12:38.133Z,101409.95
2018-03-19T06:15:05.678Z,101407.02
2018-03-19T06:17:33.206Z,101411.83
2018-03-19T06:20:00.746Z,101413.59
2018-03-19T06:22:28.338Z,101413.53
2018-03-19T06:24:55.863Z,101417.55
2018-03-19T06:27:23.449Z,101415.16
2018-03-19T06:29:50.969Z,101418.69
2018-03-19T06:32:18.530Z,101418.73
2018-03-19T06:34:46.098Z,101423.58
2018-03-19T06:37:13.621Z,101427.70
2018-03-19T06:39:41.143Z,101422.25
2018-03-19T06:42:08.687Z,101424.97
2018-03-19T06:44:36.230Z,101427.66
2018-03-19T06:47:03.834Z,101431.27
2018-03-19T06:49:31.348Z,101427.31
2018-03-19T06:51:58.873Z,101428.80
2018-03-19T06:54:26.409Z,101424.25
2018-03-19T06:56:53.935Z,101423.27
2018-03-19T06:59:21.466Z,101425.17
2018-03-19T07:01:49.088Z,101429.72
2018-03-19T07:04:16.617Z,101433.84
2018-03-19T07:06:44.208Z,101429.83
2018-03-19T07:09:11.740Z,101425.37
2018-03-19T07:11:39.290Z,101429.22
2018-03-19T07:14:06.815Z,101427.02
2018-03-19T07:16:34.370Z,101420.30
2018-03-19T07:19:01.905Z,101435.75
2018-03-19T07:21:29.465Z,101425.14
2018-03-19T07:23:57.025Z,101417.94
2018-03-19T07:26:24.551Z,101410.91
2018-03-19T07:28:52.374Z,101417.13
2018-03-19T07:31:19.911Z,101410.31
2018-03-19T07:33:47.439Z,101404.78
2018-03-19T07:36:14.954Z,101405.09
2018-03-19T07:38:42.486Z,101396.32
2018-03-19T07:41:10.012Z,101398.73
2018-03-19T07:43:37.605Z,101391.39
2018-03-19T07:46:05.139Z,101395.02
2018-03-19T07:48:32.656Z,101386.19
2018-03-19T07:51:00.184Z,101391.94
2018-03-19T07:53:27.725Z,101384.84
2018-03-19T07:55:55.238Z,101393.66
2018-03-19T07:58:22.759Z,101391.01
2018-03-19T08:00:50.290Z,101384.73
2018-03-19T08:03:17.880Z,101376.98
2018-03-19T08:05:45.438Z,101377.38
2018-03-19T08:08:12.999Z,101388.60
2018-03-19T08:10:40.529Z,101380.19
2018-03-19T08:13:08.052Z,101375.21
2018-03-19T08:15:35.677Z,101379.06
2018-03-19T08:18:03.345Z,101364.02
2018-03-19T08:20:30.871Z,101363.48
2018-03-19T08:22:58.432Z,101370.78
2018-03-19T08:25:26.019Z,101361.71
2018-03-19T08:27:53.549Z,101364.20
2018-03-19T08:30:21.062Z,101366.00
2018-03-19T08:32:48.565Z,101371.77
2018-03-19T08:35:16.162Z,101371.40
2018-03-19T08:37:43.706Z,101365.02
2018-03-19T08:40:11.246Z,101364.73
2018-03-19T08:42:38.805Z,101369.34
2018-03-19T08:45:06.331Z,101371.34
2018-03-19T08:47:33.843Z,101370.20
2018-03-19T08:50:01.383Z,101352.83
2018-03-19T08:52:28.941Z,101347.28
2018-03-19T08:54:56.559Z,101348.91
2018-03-19T08:57:24.090Z,101343.75
2018-03-19T08:59:51.621Z,101337.52
2018-03-19T09:02:19.210Z,101336.48
2018-03-19T09:04:46.736Z,101341.11
2018-03-19T09:07:14.267Z,101341.69
2018-03-19T09:09:41.779Z,101337.52
2018-03-19T09:12:09.301Z,101335.58
2018-03-19T09:14:36.822Z,101344.79
2018-03-19T09:17:04.369Z,101344.70
2018-03-19T09:19:31.881Z,101346.77
2018-03-19T09:21:59.411Z,101340.73
2018-03-19T09:24:27.033Z,101341.11
2018-03-19T09:26:54.538Z,101325.14
2018-03-19T09:29:22.156Z,101338.16
2018-03-19T09:31:49.713Z,101328.75
2018-03-19T09:34:17.290Z,101329.34
2018-03-19T09:36:44.828Z,101331.20
2018-03-19T09:39:12.337Z,101332.50
2018-03-19T09:41:39.979Z,101331.10
2018-03-19T09:44:07.504Z,101328.31
2018-03-19T09:46:35.021Z,101319.14
2018-03-19T09:49:02.541Z,101321.16
2018-03-19T09:51:30.077Z,101324.33
2018-03-19T09:53:57.595Z,101318.84
2018-03-19T09:56:25.800Z,101313.53
2018-03-19T09:58:53.301Z,101312.66
2018-03-19T10:01:20.821Z,101315.88
2018-03-19T10:03:48.344Z,101315.13
2018-03-19T10:06:16.014Z,101308.45
2018-03-19T10:08:43.517Z,101321.95
2018-03-19T10:11:11.016Z,101321.84
2018-03-19T10:13:38.652Z,101307.80
2018-03-19T10:16:06.175Z,101310.99
2018-03-19T10:18:33.757Z,101305.45
2018-03-19T10:21:01.267Z,101311.92
2018-03-19T10:23:28.777Z,101303.81
2018-03-19T10:25:56.291Z,101306.30
2018-03-19T10:28:23.810Z,101292.67
2018-03-19T10:30:51.370Z,101285.84
2018-03-19T10:33:18.901Z,101291.40
2018-03-19T10:35:46.480Z,101301.91
2018-03-19T10:38:14.024Z,101291.31
2018-03-19T10:40:41.533Z,101298.61
2018-03-19T10:43:09.168Z,101293.48
2018-03-19T10:45:36.685Z,101293.38
2018-03-19T10:48:04.213Z,101285.34
2018-03-19T10:50:31.729Z,101286.59
2018-03-19T10:52:59.359Z,101269.66
2018-03-19T10:55:26.864Z,101273.40
2018-03-19T10:57:55.097Z,101273.75
2018-03-19T11:00:22.613Z,101276.02
2018-03-19T11:03:09.922Z,101267.08
2018-03-19T11:05:43.042Z,101279.30
2018-03-19T11:08:10.573Z,101263.98
2018-03-19T11:10:38.131Z,101255.61
2018-03-19T11:13:05.682Z,101260.20
2018-03-19T11:15:33.198Z,101253.89
2018-03-19T11:18:00.741Z,101252.64
2018-03-19T11:20:28.260Z,101254.13
2018-03-19T11:22:55.862Z,101248.79
2018-03-19T11:25:23.382Z,101256.05
2018-03-19T11:27:50.888Z,101243.94
2018-03-19T11:30:18.406Z,101237.10
2018-03-19T11:32:45.924Z,101235.52
2018-03-19T11:35:13.446Z,101242.67
2018-03-19T11:37:40.959Z,101242.75
2018-03-19T11:40:08.469Z,101225.03
2018-03-19T11:42:36.095Z,101225.90
2018-03-19T11:45:03.627Z,101228.45
2018-03-19T11:47:31.139Z,101221.88
2018-03-19T11:49:58.661Z,101225.44
2018-03-19T11:52:26.242Z,101215.16
2018-03-19T11:54:53.756Z,101208.97
2018-03-19T11:57:21.268Z,101210.20
2018-03-19T11:59:48.790Z,101204.11
2018-03-19T12:02:16.302Z,101206.83
2018-03-19T12:04:43.824Z,101206.52
2018-03-19T12:07:11.348Z,101203.73
2018-03-19T12:09:38.878Z,101192.23
2018-03-19T12:12:06.522Z,101196.27
2018-03-19T12:14:34.056Z,101199.34
2018-03-19T12:17:01.562Z,101194.00
2018-03-19T12:19:29.082Z,101189.91
2018-03-19T12:21:56.609Z,101181.52
2018-03-19T12:24:24.138Z,101177.52
2018-03-19T12:26:51.648Z,101171.95
2018-03-19T12:29:19.240Z,101169.71
2018-03-19T12:31:46.769Z,101156.27
2018-03-19T12:34:14.314Z,101148.70
2018-03-19T12:36:41.859Z,101144.77
2018-03-19T12:39:09.549Z,101155.55
2018-03-19T12:41:37.065Z,101150.58
2018-03-19T12:44:04.575Z,101144.94
2018-03-19T12:46:32.159Z,101129.77
2018-03-19T12:48:59.685Z,101129.70
2018-03-19T12:51:30.904Z,101125.38
2018-03-19T12:53:58.440Z,101116.09
2018-03-19T12:56:25.958Z,101110.77
2018-03-19T12:58:53.487Z,101110.27
2018-03-19T13:01:21.010Z,101113.92
2018-03-19T13:03:48.536Z,101113.05
2018-03-19T13:06:16.119Z,101108.27
2018-03-19T13:08:43.644Z,101110.81
2018-03-19T13:11:11.165Z,101094.89
2018-03-19T13:13:38.678Z,101102.33
2018-03-19T13:16:06.186Z,101109.58
2018-03-19T13:18:33.701Z,101101.58
2018-03-19T13:21:01.236Z,101097.08
2018-03-19T13:23:28.742Z,101093.95
2018-03-19T13:25:56.257Z,101088.55
2018-03-19T13:28:23.781Z,101098.69
2018-03-19T13:30:51.313Z,101092.00
2018-03-19T13:33:18.881Z,101091.17
2018-03-19T13:35:46.402Z,101094.75
2018-03-19T13:38:13.930Z,101086.70
2018-03-19T13:40:41.501Z,101083.11
2018-03-19T13:43:09.060Z,101080.09
2018-03-19T13:45:36.578Z,101080.64
2018-03-19T13:48:04.112Z,101075.95
2018-03-19T13:50:31.632Z,101082.05
2018-03-19T13:52:59.183Z,101073.85
2018-03-19T13:55:26.701Z,101079.17
2018-03-19T13:57:54.236Z,101082.56
2018-03-19T14:00:21.766Z,101077.29
2018-03-19T14:02:49.386Z,101073.17
2018-03-19T14:05:16.902Z,101068.67
2018-03-19T14:07:44.411Z,101044.88
2018-03-19T14:10:11.962Z,101071.20
2018-03-19T14:12:39.473Z,101068.16
2018-03-19T14:15:06.989Z,101066.00
2018-03-19T14:17:34.499Z,101061.13
2018-03-19T14:20:02.088Z,101056.63
2018-03-19T14:22:29.701Z,101056.16
2018-03-19T14:24:57.216Z,101056.94
2018-03-19T14:27:25.123Z,101048.91
2018-03-19T14:29:52.738Z,101047.59
2018-03-19T14:32:20.244Z,101047.20
2018-03-19T14:34:47.870Z,101048.55
2018-03-19T14:37:15.380Z,101042.81
2018-03-19T14:39:42.903Z,101044.94
2018-03-19T14:42:10.413Z,101040.16
2018-03-19T14:44:37.937Z,101033.98
2018-03-19T14:47:05.465Z,101026.44
2018-03-19T14:49:32.991Z,101033.45
2018-03-19T14:52:00.524Z,101031.72
2018-03-19T14:54:28.166Z,101021.48
2018-03-19T14:56:55.718Z,101024.63
2018-03-19T14:59:23.194Z,101028.61
2018-03-19T15:01:50.813Z,101028.53
2018-03-19T15:04:18.332Z,101025.42
2018-03-19T15:06:45.853Z,101022.80
2018-03-19T15:09:13.369Z,101021.13
2018-03-19T15:11:40.958Z,101021.06
2018-03-19T15:14:08.486Z,101026.90
2018-03-19T15:16:35.999Z,101025.20
2018-03-19T15:19:03.511Z,101020.86
2018-03-19T15:21:31.034Z,101020.73
2018-03-19T15:23:58.545Z,101014.59
2018-03-19T15:26:26.047Z,101007.16
2018-03-19T15:28:53.605Z,101005.73
2018-03-19T15:31:21.242Z,101014.30
2018-03-19T15:33:48.772Z,101002.78
2018-03-19T15:36:16.284Z,100991.30
2018-03-19T15:38:43.796Z,101000.55
2018-03-19T15:41:11.303Z,101000.13
2018-03-19T15:43:38.915Z,100989.50
2018-03-19T15:46:06.496Z,100988.63
2018-03-19T15:48:34.024Z,100987.27
2018-03-19T15:51:01.550Z,100988.14
2018-03-19T15:53:29.073Z,100985.06
2018-03-19T15:55:56.583Z,100982.93
2018-03-19T15:58:24.123Z,100986.03
2018-03-19T16:00:51.636Z,100985.08
2018-03-19T16:03:19.144Z,100981.62
2018-03-19T16:05:46.888Z,100990.53
2018-03-19T16:08:14.416Z,100986.04
2018-03-19T16:10:41.953Z,100980.34
2018-03-19T16:13:09.482Z,100980.77
2018-03-19T16:15:36.991Z,100977.27
2018-03-19T16:18:04.579Z,100979.91
2018-03-19T16:20:32.127Z,100980.80
2018-03-19T16:22:59.649Z,100980.88
2018-03-19T16:25:27.253Z,100982.21
2018-03-19T16:27:54.768Z,100981.75
2018-03-19T16:30:22.298Z,100988.51
2018-03-19T16:32:49.827Z,100990.68
2018-03-19T16:35:17.342Z,100989.34
2018-03-19T16:37:44.879Z,100988.08
2018-03-19T16:40:12.497Z,100986.81
2018-03-19T16:42:40.026Z,100992.19
2018-03-19T16:45:07.536Z,100983.75
2018-03-19T16:47:35.049Z,100987.73
2018-03-19T16:50:02.703Z,100985.96
2018-03-19T16:52:30.286Z,100989.15
2018-03-19T16:54:57.801Z,100985.18
2018-03-19T16:57:25.355Z,100988.73
2018-03-19T16:59:52.975Z,100989.18
2018-03-19T17:02:20.536Z,100991.43
2018-03-19T17:04:48.162Z,100991.43
2018-03-19T17:07:15.705Z,100995.89
2018-03-19T17:09:43.252Z,100998.52
2018-03-19T17:12:10.790Z,100998.97
2018-03-19T17:14:38.306Z,100998.15
2018-03-19T17:17:05.820Z,100999.92
2018-03-19T17:19:33.334Z,100998.64
2018-03-19T17:22:01.135Z,101001.31
2018-03-19T17:24:28.688Z,101002.67
2018-03-19T17:26:56.201Z,100997.81
2018-03-19T17:29:23.725Z,100993.00
2018-03-19T17:31:51.239Z,101001.84
2018-03-19T17:34:18.742Z,101006.69
2018-03-19T17:36:46.268Z,101001.43
2018-03-19T17:39:13.849Z,101002.31
2018-03-19T17:41:41.393Z,101007.61
2018-03-19T17:44:08.911Z,101019.55
2018-03-19T17:46:36.439Z,101023.57
2018-03-19T17:49:03.977Z,101020.05
2018-03-19T17:51:31.507Z,101029.28
2018-03-19T17:53:59.020Z,101024.48
2018-03-19T17:56:27.480Z,101024.48
2018-03-19T17:58:54.997Z,101030.22
2018-03-19T18:01:22.519Z,101029.77
2018-03-19T18:03:50.149Z,101035.54
2018-03-19T18:06:17.656Z,101029.34
2018-03-19T18:08:45.166Z,101039.95
2018-03-19T18:11:12.676Z,101039.08
2018-03-19T18:13:40.284Z,101047.45
2018-03-19T18:16:07.787Z,101044.39
2018-03-19T18:18:35.404Z,101043.06
2018-03-19T18:21:02.964Z,101044.85
2018-03-19T18:23:30.494Z,101043.97
2018-03-19T18:25:58.013Z,101050.58
2018-03-19T18:28:25.522Z,101044.41
2018-03-19T18:30:53.068Z,101049.27
2018-03-19T18:33:20.688Z,101051.94
2018-03-19T18:35:48.204Z,101052.36
2018-03-19T18:38:15.734Z,101049.31
2018-03-19T18:40:43.253Z,101054.14
2018-03-19T18:43:10.771Z,101046.67
2018-03-19T18:45:38.384Z,101048.88
2018-03-19T18:48:05.905Z,101043.58
2018-03-19T18:50:33.610Z,101047.56
2018-03-19T18:53:01.124Z,101049.75
2018-03-19T18:55:28.644Z,101054.19
2018-03-19T18:57:56.161Z,101043.63
2018-03-19T19:00:23.742Z,101047.14
2018-03-19T19:02:51.311Z,101047.17
2018-03-19T19:05:18.862Z,101047.19
2018-03-19T19:07:46.384Z,101046.73
2018-03-19T19:10:13.906Z,101051.16
2018-03-19T19:12:41.424Z,101052.91
2018-03-19T19:15:08.973Z,101051.60
2018-03-19T19:17:36.492Z,101049.84
2018-03-19T19:20:04.028Z,101046.30
2018-03-19T19:22:31.577Z,101057.31
2018-03-19T19:24:59.139Z,101051.16
2018-03-19T19:27:26.695Z,101055.57
2018-03-19T19:29:54.223Z,101051.16
2018-03-19T19:32:21.736Z,101049.84
2018-03-19T19:34:49.272Z,101049.83
2018-03-19T19:37:16.787Z,101055.53
2018-03-19T19:39:44.306Z,101058.16
2018-03-19T19:42:11.822Z,101055.94
2018-03-19T19:44:39.333Z,101058.58
2018-03-19T19:47:06.969Z,101061.67
2018-03-19T19:49:34.480Z,101061.66
2018-03-19T19:52:02.011Z,101057.25
2018-03-19T19:54:29.547Z,101059.41
2018-03-19T19:56:57.106Z,101051.50
2018-03-19T19:59:24.632Z,101051.48
2018-03-19T20:01:52.173Z,101046.63
2018-03-19T20:04:19.719Z,101048.82
2018-03-19T20:06:47.278Z,101048.36
2018-03-19T20:09:14.789Z,101048.79
2018-03-19T20:11:42.329Z,101045.70
2018-03-19T20:14:09.894Z,101049.22
2018-03-19T20:16:37.493Z,101043.05
2018-03-19T20:19:05.016Z,101045.67
2018-03-19T20:21:32.625Z,101046.53
2018-03-19T20:24:00.139Z,101045.22
2018-03-19T20:26:27.671Z,101039.92
2018-03-19T20:28:55.196Z,101038.58
2018-03-19T20:31:22.709Z,101043.86
2018-03-19T20:33:50.288Z,101039.45
2018-03-19T20:36:17.811Z,101035.94
2018-03-19T20:38:45.408Z,101031.05
2018-03-19T20:41:12.919Z,101029.31
2018-03-19T20:43:40.425Z,101031.03
2018-03-19T20:46:07.944Z,101034.47
2018-03-19T20:48:35.491Z,101032.32
2018-03-19T20:51:03.016Z,101030.10
2018-03-19T20:53:30.562Z,101030.92
2018-03-19T20:55:58.125Z,101026.08
2018-03-19T20:58:25.685Z,101030.05
2018-03-19T21:00:53.204Z,101020.84
2018-03-19T21:03:21.122Z,101017.73
2018-03-19T21:05:48.681Z,101020.80
2018-03-19T21:08:16.209Z,101018.17
2018-03-19T21:10:43.733Z,101016.39
2018-03-19T21:13:11.265Z,101014.17
2018-03-19T21:15:38.821Z,101012.39
2018-03-19T21:18:06.353Z,101005.34
2018-03-19T21:20:33.946Z,101000.98
2018-03-19T21:23:01.499Z,100997.88
2018-03-19T21:25:29.029Z,100990.83
2018-03-19T21:27:56.564Z,100996.06
2018-03-19T21:30:24.108Z,100989.05
2018-03-19T21:32:51.846Z,100987.24
2018-03-19T21:35:19.431Z,100995.09
2018-03-19T21:37:46.967Z,100989.27
2018-03-19T21:40:14.500Z,100991.49
2018-03-19T21:42:42.031Z,100994.94
2018-03-19T21:45:09.590Z,100989.20
2018-03-19T21:47:37.149Z,100989.58
2018-03-19T21:50:04.689Z,100994.41
2018-03-19T21:52:32.209Z,100994.41
2018-03-19T21:54:59.742Z,100984.41
2018-03-19T21:57:27.271Z,100981.84
2018-03-19T21:59:54.802Z,100980.08
2018-03-19T22:02:22.326Z,100978.77
2018-03-19T22:04:49.898Z,100977.42
2018-03-19T22:07:17.480Z,100976.09
2018-03-19T22:09:44.998Z,100969.95
2018-03-19T22:12:12.597Z,100972.06
2018-03-19T22:14:40.212Z,100978.08
2018-03-19T22:17:07.791Z,100984.52
2018-03-19T22:19:35.353Z,100980.63
2018-03-19T22:22:02.884Z,100973.66
2018-03-19T22:24:30.425Z,100974.19
2018-03-19T22:26:57.949Z,100973.18
2018-03-19T22:29:25.460Z,100975.84
2018-03-19T22:31:52.982Z,100969.27
2018-03-19T22:34:20.493Z,100963.09
2018-03-19T22:36:48.019Z,100955.73
2018-03-19T22:39:15.646Z,100961.47
2018-03-19T22:41:43.170Z,100961.50
2018-03-19T22:44:10.764Z,100954.92
2018-03-19T22:46:38.322Z,100954.48
2018-03-19T22:49:05.838Z,100943.95
2018-03-19T22:51:33.460Z,100944.36
2018-03-19T22:54:00.971Z,100942.64
2018-03-19T22:56:28.579Z,100936.50
2018-03-19T22:58:56.094Z,100936.00
2018-03-19T23:01:23.615Z,100927.64
2018-03-19T23:03:51.136Z,100929.42
2018-03-19T23:06:18.654Z,100930.70
2018-03-19T23:08:46.176Z,100925.44
2018-03-19T23:11:13.700Z,100933.37
2018-03-19T23:13:41.228Z,100930.20
2018-03-19T23:16:08.768Z,100927.17
2018-03-19T23:18:36.311Z,100926.73
2018-03-19T23:21:03.829Z,100928.05
2018-03-19T23:23:31.361Z,100925.86
2018-03-19T23:25:58.872Z,100914.01
2018-03-19T23:28:26.400Z,100910.91
2018-03-19T23:30:53.939Z,100916.58
2018-03-19T23:33:21.467Z,100915.97
2018-03-19T23:35:48.979Z,100910.75
2018-03-19T23:38:16.528Z,100905.92
2018-03-19T23:40:44.040Z,100900.59
2018-03-19T23:43:11.580Z,100900.66
2018-03-19T23:45:39.118Z,100901.58
2018-03-19T23:48:06.725Z,100895.00
2018-03-19T23:50:34.259Z,100900.70
2018-03-19T23:53:01.785Z,100897.16
2018-03-19T23:55:29.405Z,100891.46
2018-03-19T23:57:56.937Z,100886.64
